Time;durP1;ratioP1;P1;durP2;ratioP2;P2;SDS_P1;SDS_P2;PMS_P1;PMS_P2;Temp;Humidity;BMP_temperature;BMP_pressure;BME280_temperature;BME280_humidity;BME280_pressure;Samples;Min_cycle;Max_cycle;Signal;HPM_P1;HPM_P2
2021/03/19 00:01:25;;;;;;;16.27;8.30;;;;;;;3.15;67.60;96612.38;5072528;28;20618;-65
2021/03/19 00:03:51;;;;;;;14.20;8.90;;;;;;;3.12;67.80;96615.25;5073499;28;20179;-66
2021/03/19 00:06:16;;;;;;;13.00;8.77;;;;;;;3.21;67.89;96611.94;5073419;28;20245;-64
2021/03/19 00:08:42;;;;;;;13.83;8.27;;;;;;;3.38;67.64;96596.81;5064960;28;20592;-66
2021/03/19 00:11:08;;;;;;;9.80;8.20;;;;;;;3.59;66.79;96602.03;5064779;28;20234;-65
2021/03/19 00:13:34;;;;;;;13.27;8.00;;;;;;;3.50;66.64;96597.59;5073259;28;20428;-66
2021/03/19 00:15:59;;;;;;;11.67;8.23;;;;;;;3.56;66.90;96601.47;5067409;28;20210;-68
2021/03/19 00:18:25;;;;;;;14.63;8.83;;;;;;;3.51;67.06;96597.50;5073168;28;20613;-65
2021/03/19 00:20:51;;;;;;;9.70;7.73;;;;;;;3.76;66.27;96598.09;5072029;28;20170;-66
2021/03/19 00:23:16;;;;;;;14.37;8.37;;;;;;;3.55;66.29;96595.47;5070772;28;20178;-67
2021/03/19 00:25:43;;;;;;;12.73;8.73;;;;;;;3.52;66.80;96593.13;5070505;28;20202;-67
2021/03/19 00:28:15;;;;;;;14.07;9.00;;;;;;;3.70;66.28;96596.00;5072939;28;20239;-67
2021/03/19 00:30:43;;;;;;;14.63;8.10;;;;;;;3.63;66.60;96592.28;5073384;28;20478;-66
2021/03/19 00:33:09;;;;;;;13.13;8.50;;;;;;;3.94;65.94;96589.75;5072413;28;20417;-68
2021/03/19 00:35:34;;;;;;;9.37;7.70;;;;;;;3.93;65.86;96593.28;5070671;28;20586;-67
2021/03/19 00:38:00;;;;;;;12.77;7.90;;;;;;;3.81;66.08;96589.94;5072436;28;20551;-67
2021/03/19 00:40:27;;;;;;;10.87;8.00;;;;;;;3.60;65.88;96585.53;5072234;28;20178;-68
2021/03/19 00:42:53;;;;;;;13.00;8.70;;;;;;;3.93;65.69;96588.13;5072488;28;20802;-68
2021/03/19 00:45:19;;;;;;;13.80;9.10;;;;;;;4.00;65.39;96581.50;5063194;28;20444;-67
2021/03/19 00:47:44;;;;;;;13.03;8.30;;;;;;;4.12;64.73;96584.81;5073798;28;20178;-68
2021/03/19 00:50:14;;;;;;;14.30;8.27;;;;;;;4.10;64.68;96581.53;5070646;28;20475;-67
2021/03/19 00:52:40;;;;;;;12.83;8.70;;;;;;;4.21;64.51;96580.66;5068577;28;20236;-67
2021/03/19 00:55:07;;;;;;;18.80;9.13;;;;;;;4.28;64.66;96584.41;5071699;28;20424;-68
2021/03/19 00:57:33;;;;;;;13.13;10.07;;;;;;;4.38;64.55;96577.47;5064662;28;20241;-66
2021/03/19 00:59:59;;;;;;;11.40;8.77;;;;;;;4.39;63.92;96576.53;5069010;28;20424;-68
2021/03/19 01:02:24;;;;;;;15.40;8.93;;;;;;;4.40;64.26;96578.19;5060437;28;20186;-68
2021/03/19 01:04:50;;;;;;;17.10;9.20;;;;;;;4.52;64.58;96575.50;5069960;28;20197;-67
2021/03/19 01:07:16;;;;;;;14.00;9.37;;;;;;;4.53;63.86;96577.16;5075289;28;20206;-67
2021/03/19 01:09:41;;;;;;;12.73;8.80;;;;;;;4.55;63.34;96577.81;5074012;28;20210;-68
2021/03/19 01:12:07;;;;;;;11.30;8.90;;;;;;;4.55;63.44;96570.03;5068575;28;20183;-65
2021/03/19 01:14:32;;;;;;;12.50;8.70;;;;;;;4.50;63.27;96578.22;5063505;28;20183;-69
2021/03/19 01:17:02;;;;;;;12.23;8.37;;;;;;;4.45;63.66;96573.41;5074323;28;20210;-68
2021/03/19 01:19:27;;;;;;;13.67;9.77;;;;;;;4.36;63.70;96574.19;5070643;28;20644;-68
2021/03/19 01:21:53;;;;;;;10.80;8.60;;;;;;;4.46;63.87;96575.06;5059337;28;20482;-67
2021/03/19 01:24:19;;;;;;;11.40;8.60;;;;;;;4.41;63.57;96569.41;5072069;28;20182;-66
2021/03/19 01:26:44;;;;;;;11.57;9.00;;;;;;;4.38;64.10;96558.47;5072081;28;20198;-67
2021/03/19 01:29:10;;;;;;;10.17;8.10;;;;;;;4.42;63.74;96563.28;5074594;28;20198;-68
2021/03/19 01:31:36;;;;;;;16.83;10.17;;;;;;;4.38;63.86;96554.13;5068202;28;20178;-65
2021/03/19 01:34:01;;;;;;;11.73;8.97;;;;;;;4.46;63.47;96553.50;5071115;28;20511;-67
2021/03/19 01:36:27;;;;;;;13.10;8.80;;;;;;;4.45;64.13;96550.06;5072092;28;20209;-68
2021/03/19 01:38:54;;;;;;;12.80;9.43;;;;;;;4.43;63.21;96557.16;5068246;28;20580;-67
2021/03/19 01:41:20;;;;;;;13.03;9.30;;;;;;;4.35;63.32;96549.19;5063777;28;20174;-67
2021/03/19 01:44:27;;;;;;;13.53;10.10;;;;;;;4.26;63.43;96545.59;5063715;28;20414;-68
2021/03/19 01:47:30;;;;;;;13.07;8.90;;;;;;;3.99;63.81;96546.13;5062667;28;20237;-67
2021/03/19 01:50:33;;;;;;;14.03;10.23;;;;;;;4.14;64.25;96552.66;5072711;28;20795;-67
2021/03/19 01:53:36;;;;;;;15.13;9.47;;;;;;;4.17;63.81;96535.16;5070810;28;21003;-66
2021/03/19 01:56:39;;;;;;;14.60;10.00;;;;;;;4.05;63.94;96545.59;5065575;28;20444;-66
2021/03/19 01:59:42;;;;;;;14.70;9.63;;;;;;;4.11;64.07;96531.31;5066411;28;20420;-65
2021/03/19 02:02:45;;;;;;;14.80;10.63;;;;;;;4.11;64.12;96531.31;5070896;28;20404;-67
2021/03/19 02:05:48;;;;;;;14.83;10.23;;;;;;;4.13;63.63;96530.25;5055768;28;20409;-66
2021/03/19 02:08:51;;;;;;;15.53;10.47;;;;;;;4.08;63.93;96524.63;5055960;28;20416;-66
2021/03/19 02:11:55;;;;;;;17.20;9.60;;;;;;;3.93;64.14;96526.72;5056946;28;20460;-66
2021/03/19 02:14:58;;;;;;;15.70;9.87;;;;;;;3.75;65.04;96518.69;5069546;28;20412;-67
2021/03/19 02:18:01;;;;;;;15.60;10.93;;;;;;;3.65;64.76;96515.22;5058830;28;20428;-66
2021/03/19 02:21:04;;;;;;;13.67;9.63;;;;;;;3.64;64.90;96508.41;5066157;28;20419;-66
2021/03/19 02:24:14;;;;;;;12.07;9.30;;;;;;;3.57;65.59;96512.41;5059617;28;20424;-65
2021/03/19 02:27:17;;;;;;;13.20;10.47;;;;;;;3.64;64.93;96518.75;5039165;28;20808;-66
2021/03/19 02:30:20;;;;;;;17.83;10.80;;;;;;;3.67;64.81;96513.31;5063432;28;20453;-65
2021/03/19 02:32:45;;;;;;;15.37;11.07;;;;;;;3.62;64.86;96515.47;5067921;28;20435;-66
2021/03/19 02:35:15;;;;;;;16.13;10.73;;;;;;;3.61;64.54;96519.00;5070542;28;20417;-67
2021/03/19 02:37:40;;;;;;;12.70;9.90;;;;;;;3.62;64.70;96518.06;5069122;28;20241;-66
2021/03/19 02:40:11;;;;;;;14.60;9.73;;;;;;;3.57;65.26;96522.78;5070317;28;20405;-66
2021/03/19 02:42:36;;;;;;;14.13;11.37;;;;;;;3.61;64.89;96531.97;5067826;28;20589;-64
2021/03/19 02:45:05;;;;;;;16.47;10.50;;;;;;;3.42;65.85;96525.66;5064299;28;20434;-65
2021/03/19 02:47:31;;;;;;;20.53;11.40;;;;;;;3.60;65.46;96528.53;5070766;28;20167;-64
2021/03/19 02:49:56;;;;;;;12.63;10.17;;;;;;;3.51;65.08;96519.75;5070125;28;20977;-67
2021/03/19 02:52:24;;;;;;;18.90;11.10;;;;;;;3.63;64.98;96522.28;5066706;28;20170;-67
2021/03/19 02:54:51;;;;;;;14.90;10.70;;;;;;;3.67;64.73;96519.31;5070698;28;20214;-66
2021/03/19 02:57:17;;;;;;;14.47;11.23;;;;;;;3.79;64.74;96524.44;5063475;28;20854;-65
2021/03/19 02:59:43;;;;;;;14.50;10.27;;;;;;;3.72;64.24;96516.34;5066800;28;20436;-66
2021/03/19 03:02:09;;;;;;;14.40;10.90;;;;;;;3.76;64.69;96517.75;5061770;28;20420;-66
2021/03/19 03:04:35;;;;;;;13.67;10.73;;;;;;;3.86;64.54;96509.22;5070741;28;20633;-67
2021/03/19 03:07:00;;;;;;;13.67;10.63;;;;;;;3.88;64.47;96515.91;5074263;28;20444;-65
2021/03/19 03:09:29;;;;;;;17.10;10.17;;;;;;;3.92;63.76;96512.13;5074257;28;20691;-65
2021/03/19 03:11:55;;;;;;;15.73;10.03;;;;;;;3.84;64.25;96504.97;5073737;28;20183;-65
2021/03/19 03:14:25;;;;;;;13.60;9.47;;;;;;;3.92;64.14;96504.34;5071451;28;20450;-66
2021/03/19 03:16:51;;;;;;;13.90;9.80;;;;;;;3.89;64.67;96504.59;5071644;28;20209;-65
2021/03/19 03:19:21;;;;;;;12.27;9.90;;;;;;;3.97;63.78;96506.53;5074041;28;20504;-67
2021/03/19 03:21:46;;;;;;;12.10;9.60;;;;;;;3.90;64.16;96508.00;5071938;28;20179;-67
2021/03/19 03:24:13;;;;;;;12.40;9.47;;;;;;;3.93;64.41;96508.56;5071441;28;20413;-66
2021/03/19 03:26:39;;;;;;;12.17;9.70;;;;;;;3.99;63.57;96509.84;5065759;28;20206;-66
2021/03/19 03:29:06;;;;;;;11.93;9.17;;;;;;;3.94;63.86;96515.41;5072345;28;20436;-67
2021/03/19 03:31:32;;;;;;;16.33;10.97;;;;;;;3.90;64.13;96518.38;5073558;28;20770;-64
2021/03/19 03:33:57;;;;;;;14.20;10.50;;;;;;;3.99;64.10;96512.44;5073474;28;20421;-65
2021/03/19 03:36:23;;;;;;;19.40;11.20;;;;;;;4.01;63.52;96505.34;5078708;28;20446;-68
2021/03/19 03:38:49;;;;;;;14.63;10.77;;;;;;;4.05;63.53;96516.28;5073539;28;20248;-66
2021/03/19 03:41:20;;;;;;;12.57;10.43;;;;;;;3.88;64.04;96504.72;5072684;28;20209;-66
2021/03/19 03:43:47;;;;;;;16.50;11.20;;;;;;;3.86;63.79;96507.41;5072457;28;20174;-66
2021/03/19 03:46:17;;;;;;;18.20;10.90;;;;;;;3.80;63.84;96513.94;5067927;28;20950;-65
2021/03/19 03:48:42;;;;;;;14.10;11.50;;;;;;;3.84;63.85;96509.34;5073586;28;20945;-67
2021/03/19 03:51:09;;;;;;;14.90;10.60;;;;;;;3.89;64.04;96514.94;5072398;28;20461;-66
2021/03/19 03:53:35;;;;;;;14.47;11.50;;;;;;;3.92;63.85;96509.53;5068651;28;20174;-65
2021/03/19 03:56:02;;;;;;;20.90;12.50;;;;;;;3.90;63.91;96510.59;5056550;28;20448;-65
2021/03/19 03:58:28;;;;;;;17.87;12.43;;;;;;;4.00;63.57;96509.69;5068206;28;20428;-66
2021/03/19 04:01:07;;;;;;;14.60;11.60;;;;;;;3.45;64.88;96509.88;5074373;28;20495;-66
2021/03/19 04:03:33;;;;;;;19.47;12.20;;;;;;;3.80;64.16;96513.94;5056912;28;20178;-67
2021/03/19 04:05:59;;;;;;;18.67;12.20;;;;;;;3.88;64.59;96504.72;5063987;28;20806;-66
2021/03/19 04:08:27;;;;;;;21.13;12.70;;;;;;;4.08;63.57;96506.47;5054584;28;20445;-66
2021/03/19 04:10:55;;;;;;;17.43;11.67;;;;;;;4.10;63.07;96509.75;5050844;28;20233;-66
2021/03/19 04:13:21;;;;;;;13.93;11.63;;;;;;;4.22;63.42;96507.06;5055371;28;20426;-67
2021/03/19 04:15:50;;;;;;;16.30;12.20;;;;;;;4.29;63.17;96508.19;5060373;28;20469;-67
2021/03/19 04:18:17;;;;;;;19.30;12.30;;;;;;;4.30;62.89;96510.66;5052697;28;20468;-66
2021/03/19 04:20:47;;;;;;;20.13;11.17;;;;;;;4.35;62.83;96507.69;5053231;28;20449;-66
2021/03/19 04:23:13;;;;;;;14.60;11.43;;;;;;;4.40;62.56;96508.13;5078822;28;20414;-67
2021/03/19 04:25:39;;;;;;;14.57;11.10;;;;;;;4.44;63.01;96506.09;5053841;28;20441;-66
2021/03/19 04:28:08;;;;;;;14.50;11.10;;;;;;;4.48;62.01;96511.81;5039896;28;20457;-65
2021/03/19 04:30:39;;;;;;;14.60;10.50;;;;;;;4.39;62.34;96511.66;5060530;28;20194;-64
2021/03/19 04:33:10;;;;;;;19.60;12.60;;;;;;;4.41;62.58;96501.94;5058802;28;20414;-65
2021/03/19 04:35:35;;;;;;;18.80;11.87;;;;;;;4.42;63.07;96510.56;5061304;28;20436;-65
2021/03/19 04:38:09;;;;;;;14.23;10.90;;;;;;;4.44;62.24;96511.28;5061248;28;21150;-66
2021/03/19 04:40:35;;;;;;;15.47;11.80;;;;;;;4.46;62.75;96514.56;5035466;28;20429;-66
2021/03/19 04:43:03;;;;;;;16.33;12.30;;;;;;;4.53;62.27;96507.88;5052645;28;20458;-66
2021/03/19 04:45:29;;;;;;;22.10;12.50;;;;;;;4.35;61.84;96507.69;5054110;28;20446;-66
2021/03/19 04:47:54;;;;;;;15.90;11.90;;;;;;;4.36;62.54;96501.53;5035221;28;20433;-66
2021/03/19 04:50:22;;;;;;;14.10;11.57;;;;;;;4.22;62.44;96507.88;5059934;28;20497;-67
2021/03/19 04:52:47;;;;;;;15.80;12.47;;;;;;;4.34;62.45;96513.00;5052191;28;20183;-66
2021/03/19 04:55:13;;;;;;;19.10;13.10;;;;;;;4.35;62.94;96505.09;5061305;28;20425;-66
2021/03/19 04:57:39;;;;;;;16.63;12.47;;;;;;;4.28;62.41;96511.75;5057342;28;20598;-62
2021/03/19 05:00:07;;;;;;;18.37;14.00;;;;;;;4.09;63.00;96513.28;5051102;28;20428;-66
2021/03/19 05:02:37;;;;;;;15.40;12.80;;;;;;;4.30;63.25;96510.66;5047860;28;20179;-63
2021/03/19 05:05:05;;;;;;;16.07;13.07;;;;;;;4.38;62.51;96507.44;5054712;28;22518;-65
2021/03/19 05:07:31;;;;;;;16.57;13.27;;;;;;;4.43;62.40;96515.63;5072609;28;20439;-65
2021/03/19 05:09:56;;;;;;;17.87;13.27;;;;;;;4.44;62.18;96512.06;5054012;28;20964;-66
2021/03/19 05:12:22;;;;;;;17.80;13.10;;;;;;;4.45;62.69;96511.13;5052828;28;20182;-66
2021/03/19 05:14:48;;;;;;;16.20;11.83;;;;;;;4.46;62.81;96517.16;5053245;28;20179;-67
2021/03/19 05:17:14;;;;;;;19.10;13.30;;;;;;;4.52;62.02;96513.22;5053346;28;20191;-67
2021/03/19 05:19:39;;;;;;;18.90;13.30;;;;;;;4.13;63.02;96519.88;5062029;28;20402;-66
2021/03/19 05:22:05;;;;;;;17.73;12.77;;;;;;;4.20;63.59;96516.75;5052662;28;20422;-66
2021/03/19 05:24:31;;;;;;;25.20;13.23;;;;;;;4.23;63.65;96519.09;5053946;28;20171;-66
2021/03/19 05:26:56;;;;;;;19.07;12.73;;;;;;;4.10;63.78;96527.06;5055793;28;20203;-67
2021/03/19 05:29:22;;;;;;;18.10;12.70;;;;;;;4.29;63.50;96521.16;5053402;28;20198;-67
2021/03/19 05:31:48;;;;;;;19.00;13.50;;;;;;;4.41;62.57;96519.31;5059337;28;20187;-66
2021/03/19 05:34:14;;;;;;;18.97;13.43;;;;;;;4.44;62.31;96521.66;5051727;28;20183;-67
2021/03/19 05:36:40;;;;;;;19.13;13.70;;;;;;;4.28;62.87;96519.53;5050208;28;20441;-65
2021/03/19 05:39:08;;;;;;;15.20;12.27;;;;;;;4.15;63.64;96525.75;5054665;28;20174;-67
2021/03/19 05:41:35;;;;;;;14.83;11.80;;;;;;;3.90;64.20;96524.38;5056245;28;20440;-66
2021/03/19 05:44:07;;;;;;;17.73;12.03;;;;;;;4.09;63.01;96528.84;5059373;28;20836;-66
2021/03/19 05:46:50;;;;;;;16.40;12.23;;;;;;;3.83;63.93;96523.25;5050700;28;20471;-66
2021/03/19 05:49:27;;;;;;;17.87;11.90;;;;;;;3.39;65.35;96525.94;5045141;28;20433;-65
2021/03/19 05:51:59;;;;;;;17.70;12.10;;;;;;;3.48;65.71;96526.94;5054539;28;20436;-67
2021/03/19 05:54:29;;;;;;;18.20;12.90;;;;;;;3.32;65.89;96535.13;5061191;28;20421;-67
2021/03/19 05:57:03;;;;;;;19.83;14.10;;;;;;;3.59;65.79;96536.44;5057968;28;20437;-66
2021/03/19 05:59:38;;;;;;;19.80;14.00;;;;;;;3.44;66.06;96538.50;5043245;28;20428;-66
2021/03/19 06:02:15;;;;;;;20.60;13.77;;;;;;;3.62;65.79;96536.19;5054926;28;20465;-65
2021/03/19 06:04:41;;;;;;;17.60;12.80;;;;;;;3.65;65.73;96546.31;5056465;28;20425;-67
2021/03/19 06:07:07;;;;;;;20.27;12.87;;;;;;;3.64;65.16;96544.69;5061698;28;20446;-66
2021/03/19 06:09:39;;;;;;;21.67;13.47;;;;;;;3.54;66.31;96544.59;5068174;28;20206;-67
2021/03/19 06:12:06;;;;;;;25.10;14.10;;;;;;;3.46;66.40;96554.78;5061791;28;20412;-67
2021/03/19 06:14:59;;;;;;;18.07;13.40;;;;;;;3.60;66.65;96553.63;5058679;28;20421;-67
2021/03/19 06:17:42;;;;;;;26.30;13.40;;;;;;;3.69;66.51;96556.31;5059881;28;20445;-65
2021/03/19 06:20:14;;;;;;;21.40;14.07;;;;;;;3.43;67.44;96567.97;5057103;28;20413;-66
2021/03/19 06:22:47;;;;;;;19.97;14.20;;;;;;;3.10;68.76;96572.28;5058209;28;21280;-67
2021/03/19 06:25:17;;;;;;;20.10;14.30;;;;;;;3.03;69.26;96577.09;5042088;28;20431;-67
2021/03/19 06:27:53;;;;;;;26.20;14.63;;;;;;;2.92;70.00;96576.19;5065524;28;20436;-66
2021/03/19 06:30:41;;;;;;;22.63;15.83;;;;;;;3.06;69.09;96584.63;5042549;28;20468;-66
2021/03/19 06:33:20;;;;;;;21.43;15.30;;;;;;;3.02;68.89;96578.06;5050019;28;20432;-66
2021/03/19 06:35:48;;;;;;;19.50;15.50;;;;;;;2.95;69.60;96582.91;5032693;28;20878;-66
2021/03/19 06:38:32;;;;;;;22.83;16.13;;;;;;;3.10;69.71;96582.63;5032614;28;20460;-66
2021/03/19 06:41:19;;;;;;;27.33;15.70;;;;;;;3.17;69.43;96574.25;5056592;28;20483;-66
2021/03/19 06:43:45;;;;;;;29.60;17.80;;;;;;;2.74;70.43;96585.41;5052310;28;20506;-66
2021/03/19 06:46:17;;;;;;;25.50;17.80;;;;;;;2.95;70.36;96589.84;5053932;28;20587;-66
2021/03/19 06:49:05;;;;;;;25.57;17.10;;;;;;;2.98;70.33;96581.84;5055250;28;20424;-66
2021/03/19 06:51:38;;;;;;;29.50;19.33;;;;;;;3.32;69.43;96581.75;5060028;28;20461;-67
2021/03/19 06:54:09;;;;;;;31.00;18.57;;;;;;;3.61;68.49;96573.44;5057120;28;20429;-66
2021/03/19 06:56:36;;;;;;;29.20;19.40;;;;;;;3.47;68.87;96579.69;5059667;28;20449;-67
2021/03/19 06:59:18;;;;;;;26.67;19.57;;;;;;;3.23;69.96;96573.78;5059553;28;20449;-67
2021/03/19 07:01:44;;;;;;;28.17;19.13;;;;;;;3.41;69.63;96578.44;5051620;28;20429;-66
2021/03/19 07:04:15;;;;;;;29.13;17.83;;;;;;;3.61;68.95;96576.81;5054573;28;20432;-66
2021/03/19 07:06:50;;;;;;;26.67;18.70;;;;;;;3.22;69.66;96577.31;5062024;28;20594;-66
2021/03/19 07:09:34;;;;;;;23.50;17.40;;;;;;;3.42;69.18;96582.66;5069892;28;20500;-68
2021/03/19 07:12:25;;;;;;;31.40;19.47;;;;;;;2.70;70.92;96589.16;5064428;28;20858;-67
2021/03/19 07:14:57;;;;;;;25.13;17.17;;;;;;;3.18;70.66;96581.09;5074629;28;20448;-65
2021/03/19 07:17:25;;;;;;;25.93;17.50;;;;;;;3.08;70.07;96580.16;5073850;28;20448;-66
2021/03/19 07:20:14;;;;;;;25.77;19.00;;;;;;;3.21;70.63;96588.63;5074412;28;20444;-65
2021/03/19 07:23:12;;;;;;;27.73;19.97;;;;;;;3.45;69.67;96582.44;5071885;28;20425;-66
2021/03/19 07:25:56;;;;;;;28.17;19.70;;;;;;;3.58;69.28;96592.66;5034162;28;20492;-65
2021/03/19 07:28:46;;;;;;;30.43;19.60;;;;;;;3.71;69.19;96592.47;5075274;28;20506;-66
2021/03/19 07:31:33;;;;;;;28.30;19.17;;;;;;;4.03;68.12;96591.63;5073263;28;20460;-65
2021/03/19 07:34:17;;;;;;;24.67;18.20;;;;;;;3.77;68.87;96596.31;5073366;28;20425;-66
2021/03/19 07:36:53;;;;;;;24.60;18.13;;;;;;;3.86;68.07;96600.75;5065158;28;20542;-66
2021/03/19 07:39:34;;;;;;;30.30;20.37;;;;;;;3.35;70.19;96603.06;5072885;28;20946;-66
2021/03/19 07:42:12;;;;;;;27.60;17.67;;;;;;;3.49;70.46;96598.53;5072704;28;20421;-69
2021/03/19 07:45:25;;;;;;;27.73;19.80;;;;;;;3.50;69.53;96598.44;5071400;28;20445;-68
2021/03/19 07:48:00;;;;;;;31.80;18.20;;;;;;;3.61;70.04;96607.13;5053777;28;20443;-70
2021/03/19 07:50:41;;;;;;;26.80;18.13;;;;;;;3.60;69.60;96605.47;5073512;28;20448;-69
2021/03/19 07:53:18;;;;;;;25.90;17.23;;;;;;;3.60;70.02;96615.84;5060010;28;20551;-69
2021/03/19 07:56:26;;;;;;;21.80;14.83;;;;;;;3.33;70.94;96614.50;5063486;28;20449;-68
2021/03/19 07:59:10;;;;;;;27.83;14.93;;;;;;;3.61;70.08;96605.34;5068319;28;20452;-68
2021/03/19 08:01:56;;;;;;;23.60;15.87;;;;;;;3.22;70.55;96615.31;5070658;28;20420;-70
2021/03/19 08:04:43;;;;;;;23.30;15.80;;;;;;;3.28;70.88;96620.03;5073886;28;20408;-67
2021/03/19 08:07:26;;;;;;;25.50;16.20;;;;;;;3.01;72.87;96628.22;5065086;28;20428;-69
2021/03/19 08:10:04;;;;;;;24.60;15.00;;;;;;;3.53;70.85;96616.31;5069659;28;20524;-67
2021/03/19 08:12:41;;;;;;;21.60;14.93;;;;;;;3.66;70.50;96617.91;5083427;28;20408;-67
2021/03/19 08:15:48;;;;;;;20.03;14.80;;;;;;;3.82;69.76;96614.94;5066236;28;20482;-67
2021/03/19 08:18:20;;;;;;;20.93;14.80;;;;;;;3.66;70.38;96615.31;5071816;28;20429;-68
2021/03/19 08:21:03;;;;;;;20.23;13.87;;;;;;;3.85;70.65;96622.44;5071722;28;20516;-68
2021/03/19 08:23:58;;;;;;;22.83;13.43;;;;;;;4.05;69.31;96620.00;5067070;28;20915;-68
2021/03/19 08:26:36;;;;;;;16.80;12.20;;;;;;;3.84;69.51;96621.63;5054602;28;20455;-68
2021/03/19 08:29:07;;;;;;;17.60;11.83;;;;;;;3.69;70.29;96622.88;5038216;28;20843;-68
2021/03/19 08:31:44;;;;;;;15.53;11.37;;;;;;;4.03;68.41;96622.75;5053654;28;20540;-68
2021/03/19 08:34:43;;;;;;;18.43;13.40;;;;;;;3.56;69.93;96632.56;5071132;28;20801;-68
2021/03/19 08:37:30;;;;;;;17.40;12.00;;;;;;;3.56;70.83;96629.97;5062119;28;20547;-69
2021/03/19 08:39:57;;;;;;;18.80;13.23;;;;;;;3.61;70.33;96626.06;5070976;28;21063;-68
2021/03/19 08:42:36;;;;;;;19.00;13.33;;;;;;;3.43;70.45;96635.31;5069185;28;20433;-69
2021/03/19 08:45:11;;;;;;;20.73;14.50;;;;;;;3.50;70.98;96641.66;5054398;28;20444;-71
2021/03/19 08:47:42;;;;;;;25.20;14.33;;;;;;;3.48;71.67;96639.19;5071217;28;20436;-69
2021/03/19 08:50:27;;;;;;;28.70;15.40;;;;;;;3.43;71.32;96643.91;5050450;28;20959;-69
2021/03/19 08:53:17;;;;;;;27.27;15.23;;;;;;;3.32;71.37;96649.09;5055178;28;20506;-67
2021/03/19 08:56:02;;;;;;;50.47;20.37;;;;;;;3.59;71.70;96642.69;5059582;28;20452;-68
2021/03/19 08:58:27;;;;;;;78.50;24.83;;;;;;;3.84;70.66;96652.75;5067515;28;20899;-69
2021/03/19 09:00:55;;;;;;;36.37;18.03;;;;;;;3.91;69.92;96647.03;5075309;28;20507;-71
2021/03/19 09:03:43;;;;;;;22.00;14.83;;;;;;;3.48;70.76;96654.72;5071576;28;20186;-70
2021/03/19 09:06:12;;;;;;;22.80;14.83;;;;;;;3.84;70.56;96657.13;5063995;28;20446;-69
2021/03/19 09:08:44;;;;;;;44.53;18.13;;;;;;;3.67;71.26;96651.50;5072029;28;20435;-69
2021/03/19 09:11:14;;;;;;;43.67;18.37;;;;;;;3.39;72.63;96665.84;5071120;28;20461;-69
2021/03/19 09:13:59;;;;;;;21.97;13.37;;;;;;;3.20;71.84;96662.06;5063511;28;20440;-68
2021/03/19 09:16:47;;;;;;;19.50;12.50;;;;;;;2.87;72.87;96671.50;5050684;28;20437;-68
2021/03/19 09:19:31;;;;;;;22.00;14.10;;;;;;;3.32;71.96;96664.66;5072257;28;20424;-69
2021/03/19 09:22:22;;;;;;;22.93;14.73;;;;;;;3.17;73.08;96670.06;5069590;28;20750;-68
2021/03/19 09:25:10;;;;;;;27.47;17.30;;;;;;;3.28;72.59;96668.41;5066964;28;20432;-67
2021/03/19 09:27:38;;;;;;;25.43;15.73;;;;;;;3.43;72.94;96671.59;5071602;28;20574;-68
2021/03/19 09:30:33;;;;;;;23.57;15.00;;;;;;;3.50;72.48;96683.09;5071929;28;20472;-67
2021/03/19 09:33:01;;;;;;;24.30;17.07;;;;;;;3.46;71.96;96672.16;5064567;28;20954;-67
2021/03/19 09:35:44;;;;;;;25.50;16.57;;;;;;;4.11;70.89;96671.34;5066298;28;20488;-68
2021/03/19 09:38:33;;;;;;;23.17;15.10;;;;;;;4.21;69.32;96679.22;5071748;28;20425;-67
2021/03/19 09:41:02;;;;;;;27.17;16.63;;;;;;;4.76;68.15;96676.44;5066616;28;20435;-67
2021/03/19 09:43:49;;;;;;;24.83;15.10;;;;;;;4.37;66.70;96677.03;5072169;28;20943;-68
2021/03/19 09:46:30;;;;;;;23.53;16.27;;;;;;;4.73;66.60;96674.06;5071368;28;20566;-66
2021/03/19 09:49:04;;;;;;;21.77;15.07;;;;;;;4.99;65.98;96679.69;5072274;28;20512;-67
2021/03/19 09:51:42;;;;;;;19.87;13.77;;;;;;;4.75;66.26;96688.59;5071633;28;20819;-67
2021/03/19 09:54:22;;;;;;;21.00;14.67;;;;;;;4.02;67.50;96693.69;5074560;28;20432;-67
2021/03/19 09:56:48;;;;;;;22.57;15.10;;;;;;;3.28;69.99;96702.09;5071704;28;20467;-67
2021/03/19 09:59:23;;;;;;;21.03;15.00;;;;;;;3.68;69.09;96697.22;5069542;28;20417;-66
2021/03/19 10:01:49;;;;;;;21.47;15.37;;;;;;;3.82;68.95;96703.06;5047267;28;20420;-67
2021/03/19 10:04:38;;;;;;;23.17;15.10;;;;;;;4.27;67.94;96702.91;5067186;28;20448;-66
2021/03/19 10:07:20;;;;;;;25.30;15.90;;;;;;;4.49;67.34;96702.91;5058669;28;20547;-67
2021/03/19 10:09:57;;;;;;;22.97;15.07;;;;;;;3.89;67.90;96713.78;5072928;28;20460;-67
2021/03/19 10:12:29;;;;;;;21.83;14.97;;;;;;;4.00;69.08;96700.78;5081104;28;20427;-67
2021/03/19 10:15:10;;;;;;;21.73;14.23;;;;;;;4.59;67.74;96702.03;5085965;28;20452;-66
2021/03/19 10:17:36;;;;;;;19.13;13.37;;;;;;;4.75;65.85;96704.19;5068581;28;20443;-66
2021/03/19 10:20:11;;;;;;;27.83;12.97;;;;;;;4.28;66.74;96709.72;5067667;28;20487;-68
2021/03/19 10:22:40;;;;;;;15.37;10.43;;;;;;;4.38;65.17;96709.81;5068877;28;20429;-66
2021/03/19 10:25:33;;;;;;;13.83;9.87;;;;;;;4.33;64.95;96711.94;5081330;28;21299;-69
2021/03/19 10:28:01;;;;;;;14.13;10.57;;;;;;;5.33;63.50;96712.38;5078125;28;20476;-67
2021/03/19 10:30:37;;;;;;;13.43;10.70;;;;;;;4.64;64.50;96703.41;5062929;28;20460;-66
2021/03/19 10:33:10;;;;;;;14.07;11.20;;;;;;;4.23;65.04;96705.88;5055195;28;20939;-67
2021/03/19 10:35:37;;;;;;;17.70;11.73;;;;;;;4.60;65.63;96705.44;5058215;28;20514;-67
2021/03/19 10:38:18;;;;;;;13.90;9.93;;;;;;;4.84;64.31;96712.13;5062944;28;20524;-66
2021/03/19 10:40:47;;;;;;;16.30;12.60;;;;;;;5.42;63.09;96715.97;5026244;28;20433;-69
2021/03/19 10:43:24;;;;;;;17.40;12.30;;;;;;;5.05;63.07;96712.13;5050745;28;20468;-66
2021/03/19 10:45:55;;;;;;;17.97;12.53;;;;;;;5.43;63.36;96710.63;5050296;28;20491;-66
2021/03/19 10:48:59;;;;;;;18.17;13.00;;;;;;;5.58;62.88;96713.66;5050423;28;20912;-67
2021/03/19 10:51:34;;;;;;;12.80;10.43;;;;;;;4.27;65.38;96715.06;5054500;28;20920;-68
2021/03/19 10:54:06;;;;;;;13.83;10.43;;;;;;;4.61;64.82;96718.28;5054718;28;20420;-66
2021/03/19 10:56:32;;;;;;;24.00;10.33;;;;;;;4.27;67.44;96717.66;5052105;28;20932;-67
2021/03/19 10:59:13;;;;;;;14.27;11.20;;;;;;;4.53;67.58;96717.28;5054764;28;20833;-67
2021/03/19 11:02:08;;;;;;;14.00;9.80;;;;;;;5.41;64.91;96716.91;5052791;28;20799;-67
2021/03/19 11:04:35;;;;;;;15.00;10.87;;;;;;;6.18;63.02;96706.81;5047201;28;20425;-68
2021/03/19 11:07:22;;;;;;;11.07;8.73;;;;;;;5.49;62.65;96710.06;5063181;28;20808;-68
2021/03/19 11:10:10;;;;;;;11.00;8.20;;;;;;;5.38;62.87;96707.59;5051738;28;20460;-66
2021/03/19 11:12:38;;;;;;;12.47;9.57;;;;;;;5.09;64.25;96721.31;5054286;28;20417;-67
2021/03/19 11:15:10;;;;;;;13.63;9.60;;;;;;;5.01;65.13;96724.53;5055315;28;20434;-66
2021/03/19 11:17:36;;;;;;;10.67;8.73;;;;;;;3.92;68.91;96729.06;5054795;28;20515;-66
2021/03/19 11:20:34;;;;;;;13.10;8.63;;;;;;;4.22;68.77;96719.78;5054999;28;20519;-67
2021/03/19 11:22:59;;;;;;;11.50;8.77;;;;;;;3.96;69.59;96730.47;5043877;28;20433;-68
2021/03/19 11:25:45;;;;;;;11.20;9.03;;;;;;;4.01;68.09;96717.97;5051363;28;20446;-67
2021/03/19 11:28:33;;;;;;;9.00;7.40;;;;;;;4.01;68.00;96730.94;5082411;28;20217;-67
2021/03/19 11:31:19;;;;;;;8.60;7.63;;;;;;;3.77;69.03;96729.38;5066718;28;20462;-66
2021/03/19 11:34:02;;;;;;;11.10;7.70;;;;;;;3.21;68.67;96738.03;5060628;28;20988;-69
2021/03/19 11:36:49;;;;;;;9.20;7.03;;;;;;;3.86;67.32;96735.56;5055485;28;20438;-68
2021/03/19 11:39:37;;;;;;;8.43;7.50;;;;;;;3.94;67.27;96737.56;5053151;28;20436;-68
2021/03/19 11:42:05;;;;;;;12.33;7.73;;;;;;;4.72;65.36;96730.38;5053166;28;20444;-67
2021/03/19 11:44:31;;;;;;;8.23;6.97;;;;;;;4.40;65.12;96739.06;5061478;28;20749;-69
2021/03/19 11:47:02;;;;;;;15.10;8.40;;;;;;;4.51;64.17;96747.72;5041761;28;20498;-67
2021/03/19 11:49:28;;;;;;;9.10;6.97;;;;;;;4.69;64.03;96748.81;5045205;28;20879;-67
2021/03/19 11:51:53;;;;;;;8.30;6.40;;;;;;;4.43;64.42;96749.16;5083895;28;20442;-65
2021/03/19 11:54:19;;;;;;;8.10;6.57;;;;;;;4.88;63.76;96755.09;5056000;28;20471;-69
2021/03/19 11:56:45;;;;;;;8.60;6.23;;;;;;;4.70;63.79;96753.06;5056515;28;20838;-67
2021/03/19 11:59:13;;;;;;;9.60;7.40;;;;;;;5.02;63.37;96754.75;5038721;28;20191;-66
2021/03/19 12:01:39;;;;;;;7.97;6.20;;;;;;;4.43;63.63;96753.53;5050989;28;20218;-67
2021/03/19 12:04:05;;;;;;;8.40;6.70;;;;;;;4.65;63.27;96763.00;5052945;28;20430;-69